• Join FlightAware (Why Join?)
  • Login
  • US Flag 
12:06PM EDT


 

Airport Tracker/Info


-or-


 

Live Flight TrackerFlight Track Log ✈ JBU24 ✈ 20-May-2013 ✈ KJFK - KSYR

Flight Track Log - Related Links

Times and Time Zones

All times are in EDT time to prevent confusion due to time zone crossing. See the JBU24 flight status page for this flight to view local times or setup timezone preferences in your user account.

Time Position Orientation Groundspeed Altitude Reporting Facility
EDT Latitude Longitude Course Direction KTS MPH feet Rate Location/Type
05:23PM 40.6333 -73.7667 316° Northwest 160 184 1,000  Level New York TRACON
05:24PM 40.6333 -73.7000 90° East 215 247 2,300 1,980 Climbing New York TRACON
05:25PM 40.6833 -73.6500 37° Northeast 267 307 4,800 2,940 Climbing New York TRACON
05:26PM 40.8695 -74.0958 311° West  Level FlightAware Approximate
05:26PM 40.7500 -73.5667 43° Northeast 282 325 8,500  Level New York TRACON
05:27PM 40.9274 -74.1805 316° Northwest  Level FlightAware Approximate
05:27PM 40.8167 -73.5333 21° North 305 351 11,000  Level New York TRACON
05:28PM 40.9894 -74.2601 316° Northwest  Level FlightAware Approximate
05:28PM 40.8833 -73.6000 323° Northwest 332 382 12,700  Level New York TRACON
05:29PM 40.9667 -73.7000 318° Northwest 346 398 15,400 2,100 Climbing New York TRACON
05:30PM 41.0167 -73.8000 304° West 362 417 17,000 780 Climbing New York TRACON
05:31PM 41.0500 -73.9333 288° West 358 412 17,000 -60 Level New York TRACON
05:32PM 41.1092 -74.1472 290° West 372 428 16,900 -60 Descending New York Center
05:33PM 41.1600 -74.2600 301° West 365 420 16,900  Level New York Center
05:34PM 41.2133 -74.3592 306° West 360 414 16,900 960 Level New York Center
05:35PM 41.2667 -74.4533 307° West 360 414 18,800 2,100 Climbing New York Center
05:36PM 41.3414 -74.5900 306° West 373 429 21,200 1,560 Climbing New York Center
05:37PM 41.4042 -74.7069 306° West 384 442 22,000 360 Climbing New York Center
05:38PM 41.4669 -74.8242 306° West 389 448 22,000  Level New York Center
05:39PM 41.5297 -74.9386 306° West 389 448 22,000  Level New York Center
05:40PM 41.5900 -75.0561 304° West 389 448 22,000  Level New York Center
05:41PM 41.6544 -75.1742 306° West 389 448 22,000  Level New York Center
05:42PM 41.7164 -75.2922 305° West 389 448 22,000  Level New York Center
05:43PM 41.7764 -75.4103 304° West 389 448 22,000  Level New York Center
05:44PM 41.8386 -75.5231 307° West 389 448 22,000  Level New York Center
05:45PM 41.9006 -75.6419 305° West 389 448 22,000  Level New York Center
05:46PM 41.9619 -75.7633 304° West 389 448 22,000  Level New York Center
05:47PM 42.0236 -75.8797 306° West 389 448 22,000 -900 Level New York Center
05:48PM 42.0833 -75.9961 305° West 389 448 20,300 -1,740 Descending New York Center
05:49PM 42.1408 -76.1069 305° West 383 441 18,600 -2,160 Descending New York Center
05:50PM 42.2003 -76.2181 306° West 378 435 16,100 -2,460 Descending New York Center
05:51PM 42.2967 -76.2458 348° North 338 389 13,800 -2,280 Descending New York Center
05:52PM 42.3950 -76.2372 North 333 383 11,600 -2,220 Descending New York Center
05:53PM 42.4222 -76.2403 355° North 340 391 11,000 -360 Descending Boston Center
05:54PM 42.5642 -76.2319 North 332 382 11,000 -540 Level Boston Center
05:55PM 42.6497 -76.2317 360° North 277 319 9,700 -1,680 Descending Boston Center
05:56PM 42.7208 -76.2275 North 274 315 7,600 -2,340 Descending Boston Center
05:57PM 42.8128 -76.2247 North 283 326 5,100 -1,740 Descending Boston Center
05:58PM 42.8669 -76.1628 40° Northeast 267 307 4,000 -600 Descending Boston Center
05:59PM 42.8961 -76.0964 59° Northeast 199 229 4,000 -60 Level Boston Center
06:00PM 42.9089 -76.0178 77° East 190 219 3,900 -60 Descending Boston Center
06:01PM 42.9339 -75.9542 62° Northeast 200 230 3,900 -180 Level Boston Center
06:02PM 42.9897 -75.9714 347° North 200 230 3,600 -780 Descending Boston Center
06:03PM 43.0386 -76.0028 335° Northwest 193 222 2,400 -1,200 Descending Boston Center